| Date | Time | Temp. (oF) | Dew Point (oF) | Rel. Hum. (%) | Press. (in.) | Wind Dir. | Wind Speed (mph) | Hourly Rainfall (in.) |
|
|---|---|---|---|---|---|---|---|---|---|
| 1 | 12/10 | 00:00 | 44 | 27 | 52 | 29.45 | WSW | 11 | 0.00 |
| 2 | 12/09 | 23:00 | 45 | 29 | 55 | 29.40 | WNW | 6 | 0.00 |
| 3 | 12/09 | 22:00 | 45 | 37 | 76 | 29.36 | SSW | 5 | 0.00 |
| 4 | 12/09 | 21:00 | 44 | 42 | 95 | 29.35 | W | 2 | 0.00 |
| 5 | 12/09 | 20:00 | 45 | 42 | 92 | 29.33 | WSW | 7 | 0.00 |
| 6 | 12/09 | 19:00 | 47 | 43 | 89 | 29.29 | W | 5 | 0.00 |
| 7 | 12/09 | 18:00 | 48 | 44 | 87 | 29.24 | SSW | 6 | 0.00 |
| 8 | 12/09 | 17:00 | 45 | 42 | 91 | 29.23 | SSW | 7 | 0.00 |
| 9 | 12/09 | 16:00 | 52 | 46 | 80 | 29.21 | SW | 7 | 0.00 |
| 10 | 12/09 | 15:00 | 55 | 46 | 74 | 29.10 | S | 6 | 0.00 |
| 11 | 12/09 | 14:00 | 53 | 45 | 77 | 29.20 | S | 10 | 0.00 |
| 12 | 12/09 | 13:00 | 52 | 47 | 86 | 29.26 | S | 8 | 0.00 |
| 13 | 12/09 | 12:00 | 50 | 47 | 90 | 29.33 | SW | 4 | 0.00 |
| 14 | 12/09 | 11:00 | 46 | 45 | 100 | 29.38 | WSW | 5 | 0.00 |
| 15 | 12/09 | 10:00 | 45 | 45 | 100 | 29.40 | SSE | 1 | 0.00 |
| 16 | 12/09 | 09:00 | 44 | 44 | 100 | 29.43 | WNW | 2 | 0.02 |
| 17 | 12/09 | 08:00 | 42 | 41 | 100 | 29.47 | NNW | 4 | 0.11 |
| 18 | 12/09 | 07:00 | 38 | 37 | 100 | 29.49 | ENE | 7 | 0.22 |
| 19 | 12/09 | 06:00 | 38 | 37 | 100 | 29.58 | E | 9 | 0.18 |
| 20 | 12/09 | 05:00 | 36 | 36 | 100 | 29.69 | NNW | 3 | 0.24 |
| 21 | 12/09 | 04:00 | 34 | 33 | 100 | 29.74 | ENE | 5 | 0.13 |
| 22 | 12/09 | 03:00 | 32 | 32 | 100 | 29.87 | E | 10 | 0.14 |
| 23 | 12/09 | 02:00 | 32 | 31 | 99 | 29.98 | E | 5 | 0.14 |
| 24 | 12/09 | 01:00 | 32 | 31 | 97 | 30.02 | E | 6 | 0.10 |